Aérodrome :
LOGIN :

S'inscrire | Disclaimer

   EN    FR    IT 

 










Légende :    VFR   VFR Marginal   IFR   IFR Intensif   IFR Très Intensif
Visi : 
Plafond : 
>= 8 km
>= 3000ft
5 à 8 km
1000 à 3000 ft
1500m à 5 km
500 à 1000 ft
800 à 1500m
200 à 500 ft
< 800m
< 200 ft
Symboles :   Orages  Brouillard  Fortes neiges  Fortes précipitations  Vent > 20 kt
SIGMETs :   Divers  Orages  Givrage  Turbulence  Onde Orograph.  Cendres Volcan.







- Altitude de l'aérodrome : 353 ft
- Code IATA : ZAG


LDZA - Zagreb Pleso

DERNIER METAR :
  • 211400Z 05008KT 340V100 CAVOK 14/M02 Q1033 NOSIG

METARs EXPIRÉS :
  • 211330Z VRB05KT CAVOK 14/M02 Q1033 TEMPO 05010KT
  • 211300Z VRB02KT CAVOK 13/M02 Q1033 TEMPO 05010KT
  • 211230Z VRB04KT CAVOK 13/M03 Q1034 TEMPO 05010KT
  • 211200Z 08003KT 360V150 CAVOK 13/M03 Q1034 TEMPO 05010KT
  • 211130Z VRB02KT CAVOK 13/M03 Q1035 TEMPO 05010KT
  • 211100Z VRB06KT CAVOK 12/M03 Q1035 TEMPO 05010KT

TAF TAF LDZA
Valide du 21 à 12h jusqu'au 22 à 12h UTC


211125Z 2112/2212 05004KT CAVOK TX14/2211Z TN00/2204Z
TEMPO 2112/2117 05010KT
ATIS : +385 1 6-259-214
Pas de NOTAMs connus pour ce terrain.



MET'MAP, la Météo Aéronautique d'un coup d'oeil ! - Copyright ORBIFLY Décembre 2007 - Disclaimer

ORBIFLY MET'MAP TEAM :

Programmation & Développement : Alexandra Zaïnal
Conception & Développement : Baudouin d'Aumeries
Co-Programmation & Développement : Marc-Olivier Méhu
Soutien technique & logistique : Manuel Goepfert

Contact : metmap@orbifly.com




SOURCES & CREDITS :

   NOAA